Time;durP1;ratioP1;P1;durP2;ratioP2;P2;SDS_P1;SDS_P2;PMS_P1;PMS_P2;Temp;Humidity;BMP_temperature;BMP_pressure;BME280_temperature;BME280_humidity;BME280_pressure;Samples;Min_cycle;Max_cycle;Signal;HPM_P1;HPM_P2
2022/04/23 00:02:35;;;;;;;0.83;0.83;;;10.90;99.90;;;;;;5063886;28;20205;-53
2022/04/23 00:05:19;;;;;;;1.30;1.10;;;10.80;99.90;;;;;;5063363;28;20229;-61
2022/04/23 00:08:04;;;;;;;0.77;0.77;;;10.80;99.90;;;;;;5063106;28;20198;-58
2022/04/23 00:10:48;;;;;;;0.90;0.90;;;10.80;99.90;;;;;;5062516;28;20244;-56
2022/04/23 00:13:33;;;;;;;1.37;0.80;;;10.80;99.90;;;;;;5064180;28;20247;-59
2022/04/23 00:16:17;;;;;;;1.03;0.87;;;10.80;99.90;;;;;;5063054;28;20198;-49
2022/04/23 00:19:02;;;;;;;0.73;0.73;;;10.80;99.90;;;;;;5062799;28;20217;-54
2022/04/23 00:21:47;;;;;;;0.93;0.80;;;10.80;99.90;;;;;;5063612;28;20253;-51
2022/04/23 00:24:31;;;;;;;0.80;0.80;;;10.80;99.90;;;;;;5063433;28;20197;-54
2022/04/23 00:27:16;;;;;;;1.00;1.00;;;10.80;99.90;;;;;;5063434;28;20210;-58
2022/04/23 00:30:01;;;;;;;1.70;0.90;;;10.70;99.90;;;;;;5063166;28;20340;-56
2022/04/23 00:32:46;;;;;;;1.03;0.90;;;10.70;99.90;;;;;;5062448;28;20222;-63
2022/04/23 00:35:31;;;;;;;0.90;0.90;;;10.70;99.90;;;;;;5063077;28;20185;-58
2022/04/23 00:38:16;;;;;;;1.00;1.00;;;10.70;99.90;;;;;;5063647;28;20197;-50
2022/04/23 00:41:00;;;;;;;0.70;0.70;;;10.70;99.90;;;;;;5061866;28;20243;-49
2022/04/23 00:43:48;;;;;;;2.07;1.20;;;10.70;99.90;;;;;;5063740;28;20287;-55
2022/04/23 00:46:33;;;;;;;0.90;0.90;;;10.60;99.90;;;;;;5062799;28;20209;-47
2022/04/23 00:49:17;;;;;;;1.30;1.20;;;10.70;99.90;;;;;;5062618;28;20194;-53
2022/04/23 00:52:02;;;;;;;1.30;1.03;;;10.60;99.90;;;;;;5063645;28;20209;-49
2022/04/23 00:54:46;;;;;;;1.27;1.17;;;10.70;99.90;;;;;;5063256;28;20245;-63
2022/04/23 00:57:31;;;;;;;2.43;1.50;;;10.60;99.90;;;;;;5062386;28;20266;-50
2022/04/23 01:00:16;;;;;;;1.63;1.13;;;10.60;99.90;;;;;;5062929;28;20229;-51
2022/04/23 01:03:01;;;;;;;1.30;1.17;;;10.70;99.90;;;;;;5062511;28;20197;-61
2022/04/23 01:05:47;;;;;;;1.10;1.10;;;10.60;99.90;;;;;;5062454;28;20256;-52
2022/04/23 01:08:31;;;;;;;1.40;1.30;;;10.60;99.90;;;;;;5062275;28;20217;-51
2022/04/23 01:11:16;;;;;;;1.40;1.30;;;10.60;99.90;;;;;;5061815;28;20201;-63
2022/04/23 01:14:01;;;;;;;1.00;0.90;;;10.50;99.90;;;;;;5063174;28;20288;-60
2022/04/23 01:16:45;;;;;;;1.47;1.30;;;10.50;99.90;;;;;;5062086;28;20295;-60
2022/04/23 01:19:29;;;;;;;1.20;1.10;;;10.40;99.90;;;;;;5061921;28;20205;-63
2022/04/23 01:22:15;;;;;;;1.17;1.07;;;10.30;99.90;;;;;;5063311;28;20201;-61
2022/04/23 01:25:00;;;;;;;1.67;1.40;;;10.10;99.90;;;;;;5062538;28;20260;-60
2022/04/23 01:27:45;;;;;;;0.90;0.90;;;10.00;99.90;;;;;;5062552;28;20237;-67
2022/04/23 01:30:30;;;;;;;1.03;1.03;;;9.90;99.90;;;;;;5063548;28;20204;-60
2022/04/23 01:33:15;;;;;;;1.23;0.80;;;9.90;99.90;;;;;;5062643;28;20209;-56
2022/04/23 01:36:00;;;;;;;0.90;0.90;;;9.80;99.90;;;;;;5062256;28;20279;-50
2022/04/23 01:38:45;;;;;;;1.10;1.10;;;9.70;99.90;;;;;;5063124;28;20193;-59
2022/04/23 01:41:29;;;;;;;0.70;0.70;;;9.70;99.90;;;;;;5062567;28;20221;-61
2022/04/23 01:44:14;;;;;;;1.23;1.10;;;9.80;99.90;;;;;;5064123;28;20236;-48
2022/04/23 01:46:58;;;;;;;1.00;0.90;;;9.90;99.90;;;;;;5063573;28;20209;-51
2022/04/23 01:49:46;;;;;;;0.80;0.80;;;9.90;99.90;;;;;;5062689;28;20189;-66
2022/04/23 01:52:30;;;;;;;0.80;0.77;;;9.90;99.90;;;;;;5063304;28;20209;-57
2022/04/23 01:55:15;;;;;;;0.93;0.93;;;10.00;99.90;;;;;;5063411;28;20213;-61
2022/04/23 01:57:59;;;;;;;0.83;0.83;;;10.00;99.90;;;;;;5062497;28;20193;-55
2022/04/23 02:00:44;;;;;;;0.80;0.80;;;9.90;99.90;;;;;;5062649;28;20228;-64
2022/04/23 02:03:29;;;;;;;1.50;1.00;;;10.00;99.90;;;;;;5063029;28;20220;-60
2022/04/23 02:06:14;;;;;;;0.90;0.90;;;10.00;99.90;;;;;;5063786;28;20310;-58
2022/04/23 02:08:59;;;;;;;2.33;0.90;;;10.00;99.90;;;;;;5066914;28;20320;-59
2022/04/23 02:11:44;;;;;;;1.93;1.17;;;9.90;99.90;;;;;;5066787;28;20212;-53
2022/04/23 02:14:28;;;;;;;1.00;1.00;;;10.00;99.90;;;;;;5067081;28;20185;-46
2022/04/23 02:17:13;;;;;;;0.80;0.80;;;9.90;99.90;;;;;;5065888;28;20238;-52
2022/04/23 02:20:02;;;;;;;1.63;1.10;;;10.00;99.90;;;;;;5066143;28;20213;-58
2022/04/23 02:22:47;;;;;;;1.13;1.03;;;10.00;99.90;;;;;;5066829;28;20190;-60
2022/04/23 02:25:35;;;;;;;0.90;0.90;;;10.00;99.90;;;;;;5066728;28;20197;-55
2022/04/23 02:28:19;;;;;;;0.93;0.93;;;9.90;99.90;;;;;;5065423;28;20263;-56
2022/04/23 02:31:03;;;;;;;1.47;0.97;;;9.90;99.90;;;;;;5066650;28;20212;-58
2022/04/23 02:33:48;;;;;;;1.30;1.30;;;9.90;99.90;;;;;;5065999;28;20209;-58
2022/04/23 02:36:32;;;;;;;1.40;1.30;;;9.90;99.90;;;;;;5065384;28;20189;-54
2022/04/23 02:39:16;;;;;;;0.80;0.80;;;9.90;99.90;;;;;;5065673;28;20251;-63
2022/04/23 02:42:01;;;;;;;2.53;1.50;;;10.00;99.90;;;;;;5065291;28;20229;-54
2022/04/23 02:44:45;;;;;;;0.97;0.97;;;9.90;99.90;;;;;;5066648;28;20252;-58
2022/04/23 02:47:40;;;;;;;1.70;1.60;;;10.00;99.90;;;;;;5065583;28;20304;-64
2022/04/23 02:50:35;;;;;;;1.47;1.30;;;9.90;99.90;;;;;;5065309;28;20720;-60
2022/04/23 02:53:20;;;;;;;1.27;1.23;;;9.80;99.90;;;;;;5066043;28;20198;-59
2022/04/23 02:56:05;;;;;;;1.13;0.93;;;9.90;99.90;;;;;;5065417;28;20197;-65
2022/04/23 02:58:50;;;;;;;1.03;1.03;;;9.90;99.90;;;;;;5064848;28;20197;-48
2022/04/23 03:01:36;;;;;;;1.63;1.20;;;10.00;99.90;;;;;;5065870;28;20220;-62
2022/04/23 03:04:21;;;;;;;1.33;1.27;;;10.00;99.90;;;;;;5066241;28;20193;-56
2022/04/23 03:07:05;;;;;;;2.00;1.43;;;10.10;99.90;;;;;;5065196;28;20282;-51
2022/04/23 03:09:49;;;;;;;1.33;1.03;;;10.10;99.90;;;;;;5066227;28;20210;-52
2022/04/23 03:12:36;;;;;;;1.80;1.60;;;10.10;99.90;;;;;;5065489;28;20268;-50
2022/04/23 03:15:21;;;;;;;1.93;1.40;;;10.10;99.90;;;;;;5065048;28;20189;-53
2022/04/23 03:18:13;;;;;;;1.60;1.50;;;10.00;99.90;;;;;;5065144;28;20244;-63
2022/04/23 03:20:58;;;;;;;2.50;2.07;;;10.00;99.90;;;;;;5064578;28;20225;-53
2022/04/23 03:23:42;;;;;;;2.53;1.50;;;9.90;99.90;;;;;;5065816;28;20247;-63
2022/04/23 03:26:26;;;;;;;1.63;1.53;;;10.00;99.90;;;;;;5065725;28;20442;-60
2022/04/23 03:29:11;;;;;;;1.90;1.80;;;10.00;99.90;;;;;;5064786;28;20272;-49
2022/04/23 03:31:55;;;;;;;2.07;1.73;;;10.10;99.90;;;;;;5066250;28;20228;-65
2022/04/23 03:34:40;;;;;;;1.83;1.50;;;10.00;99.90;;;;;;5065148;28;20197;-60
2022/04/23 03:37:25;;;;;;;1.83;1.57;;;10.00;99.90;;;;;;5064767;28;20192;-66
2022/04/23 03:40:11;;;;;;;3.63;2.23;;;10.00;99.90;;;;;;5065885;28;20212;-64
2022/04/23 03:42:56;;;;;;;12.73;6.37;;;10.00;99.90;;;;;;5064801;28;20274;-57
2022/04/23 03:45:40;;;;;;;19.67;9.00;;;10.00;99.90;;;;;;5064914;28;20194;-49
2022/04/23 03:48:24;;;;;;;2.60;2.00;;;10.10;99.90;;;;;;5065237;28;20279;-65
2022/04/23 03:51:08;;;;;;;5.70;3.00;;;10.10;99.90;;;;;;5064698;28;20197;-58
2022/04/23 03:53:52;;;;;;;4.07;1.70;;;10.10;99.90;;;;;;5065234;28;20268;-59
2022/04/23 03:56:36;;;;;;;2.23;2.03;;;10.20;99.90;;;;;;5064470;28;20202;-62
2022/04/23 03:59:23;;;;;;;2.37;1.90;;;10.20;99.90;;;;;;5064748;28;20208;-57
2022/04/23 04:02:08;;;;;;;6.47;2.27;;;10.20;99.90;;;;;;5065014;28;20244;-67
2022/04/23 04:04:52;;;;;;;5.80;2.80;;;10.20;99.90;;;;;;5064656;28;20260;-51
2022/04/23 04:07:44;;;;;;;4.07;2.07;;;10.30;99.90;;;;;;5064221;28;20205;-51
2022/04/23 04:10:29;;;;;;;2.97;2.20;;;10.30;99.90;;;;;;5065230;28;20201;-48
2022/04/23 04:13:14;;;;;;;3.10;2.20;;;10.20;99.90;;;;;;5065337;28;20196;-49
2022/04/23 04:15:58;;;;;;;5.40;3.50;;;10.30;99.90;;;;;;5082719;28;20189;-59
2022/04/23 04:18:43;;;;;;;19.63;8.23;;;10.30;99.90;;;;;;5081278;28;20256;-57
2022/04/23 04:21:27;;;;;;;4.23;3.40;;;10.30;99.90;;;;;;5081882;28;20244;-56
2022/04/23 04:24:13;;;;;;;4.60;2.83;;;10.50;99.90;;;;;;5082336;28;20259;-47
2022/04/23 04:26:58;;;;;;;5.33;3.00;;;10.50;99.90;;;;;;5083608;28;20188;-54
2022/04/23 04:29:43;;;;;;;4.27;2.87;;;10.50;99.90;;;;;;5077784;28;20197;-52
2022/04/23 04:32:27;;;;;;;3.83;2.90;;;10.50;99.90;;;;;;5076254;28;20260;-53
2022/04/23 04:35:12;;;;;;;3.77;2.43;;;10.40;99.90;;;;;;5069409;28;20193;-51
2022/04/23 04:37:56;;;;;;;8.20;4.10;;;10.50;99.90;;;;;;5074057;28;20192;-63
2022/04/23 04:40:40;;;;;;;5.30;3.93;;;10.40;99.90;;;;;;5074712;28;20282;-53
2022/04/23 04:43:25;;;;;;;5.83;2.67;;;10.20;99.90;;;;;;5075001;28;20266;-61
2022/04/23 04:46:09;;;;;;;4.37;2.50;;;10.20;99.90;;;;;;5074369;28;20197;-59
2022/04/23 04:48:54;;;;;;;7.10;2.80;;;10.30;99.90;;;;;;5082169;28;20197;-53
2022/04/23 04:51:38;;;;;;;34.87;13.70;;;10.40;99.90;;;;;;5082435;28;20235;-53
2022/04/23 04:54:23;;;;;;;6.80;3.20;;;10.40;99.90;;;;;;5083351;28;20196;-65
2022/04/23 04:57:07;;;;;;;3.37;2.80;;;10.40;99.90;;;;;;5083881;28;20247;-62
2022/04/23 04:59:52;;;;;;;3.70;2.67;;;10.40;99.90;;;;;;5081153;28;20192;-58
2022/04/23 05:02:37;;;;;;;7.63;3.23;;;10.30;99.90;;;;;;5083060;28;20324;-52
2022/04/23 05:05:22;;;;;;;4.47;2.60;;;10.40;99.90;;;;;;5083431;28;20362;-59
2022/04/23 05:08:07;;;;;;;4.27;2.73;;;10.40;99.90;;;;;;5080775;28;20189;-57
2022/04/23 05:10:51;;;;;;;4.90;3.00;;;10.50;99.90;;;;;;5081736;28;20192;-51
2022/04/23 05:13:37;;;;;;;4.10;2.53;;;10.50;99.90;;;;;;5081622;28;20221;-53
2022/04/23 05:16:22;;;;;;;3.73;2.50;;;10.50;99.90;;;;;;5081398;28;20193;-54
2022/04/23 05:19:06;;;;;;;3.07;2.40;;;10.60;99.90;;;;;;5082948;28;20196;-65
2022/04/23 05:21:50;;;;;;;2.50;2.30;;;10.60;99.90;;;;;;5081467;28;20293;-48
2022/04/23 05:24:34;;;;;;;4.70;2.90;;;10.70;99.90;;;;;;5080498;28;20376;-52
2022/04/23 05:27:18;;;;;;;3.33;2.60;;;10.90;99.90;;;;;;5081169;28;20286;-51
2022/04/23 05:30:03;;;;;;;4.97;2.70;;;10.80;99.90;;;;;;5078454;28;20197;-54
2022/04/23 05:32:48;;;;;;;4.70;2.40;;;10.90;99.90;;;;;;5083104;28;20188;-59
2022/04/23 05:35:33;;;;;;;5.20;2.50;;;10.90;99.90;;;;;;5078116;28;20207;-55
2022/04/23 05:38:21;;;;;;;2.73;2.40;;;10.90;99.90;;;;;;5081441;28;20204;-60
2022/04/23 05:41:06;;;;;;;2.53;2.13;;;10.80;99.90;;;;;;5083521;28;20271;-56
2022/04/23 05:43:50;;;;;;;2.43;2.23;;;10.90;99.90;;;;;;5085807;28;20200;-65
2022/04/23 05:46:35;;;;;;;3.33;2.47;;;10.80;99.90;;;;;;5084397;28;20189;-55
2022/04/23 05:49:19;;;;;;;2.10;1.90;;;10.90;99.90;;;;;;5080820;28;20284;-60
2022/04/23 05:52:04;;;;;;;2.77;2.43;;;10.80;99.90;;;;;;5086462;28;20238;-64
2022/04/23 05:54:48;;;;;;;2.33;2.13;;;10.80;99.90;;;;;;5087910;28;20188;-51
2022/04/23 05:57:33;;;;;;;2.47;2.27;;;10.90;99.90;;;;;;5086228;28;20200;-57
2022/04/23 06:00:18;;;;;;;2.67;2.47;;;11.00;99.90;;;;;;5085465;28;20204;-49
2022/04/23 06:03:02;;;;;;;3.03;2.67;;;11.10;99.90;;;;;;5087130;28;20197;-54
2022/04/23 06:05:46;;;;;;;3.47;2.57;;;11.00;99.90;;;;;;5082177;28;20252;-59
2022/04/23 06:08:31;;;;;;;2.13;1.80;;;10.90;99.90;;;;;;5084593;28;20193;-53
2022/04/23 06:11:18;;;;;;;1.93;1.80;;;11.00;99.90;;;;;;5085169;28;20236;-46
2022/04/23 06:14:02;;;;;;;2.27;1.93;;;11.00;99.90;;;;;;5087561;28;20224;-53
2022/04/23 06:16:47;;;;;;;2.90;2.23;;;11.10;99.90;;;;;;5086843;28;20185;-61
2022/04/23 06:19:32;;;;;;;2.20;2.00;;;11.00;99.90;;;;;;5086977;28;20234;-63
2022/04/23 06:22:16;;;;;;;3.63;2.03;;;11.10;99.90;;;;;;5093695;28;20240;-58
2022/04/23 06:25:01;;;;;;;3.57;2.10;;;11.20;99.90;;;;;;5090604;28;20200;-54
2022/04/23 06:27:45;;;;;;;3.13;1.83;;;11.30;99.90;;;;;;5086488;28;20220;-54
2022/04/23 06:30:30;;;;;;;2.90;2.13;;;11.30;99.90;;;;;;5085631;28;20197;-59
2022/04/23 06:33:15;;;;;;;2.17;1.50;;;11.40;99.90;;;;;;5087201;28;20192;-61
2022/04/23 06:35:59;;;;;;;2.00;1.90;;;11.40;99.90;;;;;;5087232;28;20262;-64
2022/04/23 06:38:44;;;;;;;1.93;1.70;;;11.40;99.90;;;;;;5086283;28;20197;-56
2022/04/23 06:41:28;;;;;;;3.10;1.70;;;11.50;99.90;;;;;;5086260;28;20295;-61
2022/04/23 06:44:13;;;;;;;3.70;1.70;;;11.50;99.90;;;;;;5086797;28;20193;-58
2022/04/23 06:46:57;;;;;;;2.07;1.90;;;11.60;99.90;;;;;;5085789;28;20189;-54
2022/04/23 06:49:42;;;;;;;2.53;1.60;;;11.60;99.90;;;;;;5085691;28;20275;-60
2022/04/23 06:52:27;;;;;;;2.07;1.63;;;11.80;99.90;;;;;;5084920;28;20323;-63
2022/04/23 06:55:11;;;;;;;2.10;1.87;;;11.80;99.90;;;;;;5086192;28;20207;-51
2022/04/23 06:57:55;;;;;;;3.17;2.40;;;11.70;99.90;;;;;;5085935;28;20269;-60
2022/04/23 07:00:41;;;;;;;3.30;2.10;;;11.70;99.90;;;;;;5085879;28;20252;-55
2022/04/23 07:03:25;;;;;;;2.73;1.83;;;11.60;99.90;;;;;;5086107;28;20232;-58
2022/04/23 07:06:11;;;;;;;2.50;1.60;;;11.70;99.90;;;;;;5086369;28;20293;-51
2022/04/23 07:08:56;;;;;;;3.27;1.80;;;11.80;99.90;;;;;;5086086;28;20201;-49
2022/04/23 07:11:41;;;;;;;2.03;1.70;;;11.80;99.90;;;;;;5085389;28;20197;-48
2022/04/23 07:14:25;;;;;;;4.40;1.43;;;11.70;99.90;;;;;;5086557;28;20220;-49
2022/04/23 07:17:10;;;;;;;2.00;1.63;;;11.80;99.90;;;;;;5084887;28;20228;-49
2022/04/23 07:19:55;;;;;;;1.80;1.50;;;12.00;99.90;;;;;;5085408;28;20280;-48
2022/04/23 07:22:39;;;;;;;1.63;1.53;;;12.00;99.90;;;;;;5085540;28;20205;-47
2022/04/23 07:25:23;;;;;;;2.60;1.70;;;11.90;99.90;;;;;;5085891;28;20255;-53
2022/04/23 07:28:07;;;;;;;1.53;1.43;;;11.90;99.90;;;;;;5085873;28;20229;-50
2022/04/23 07:30:51;;;;;;;1.90;1.50;;;12.00;99.90;;;;;;5086013;28;20196;-49
2022/04/23 07:39:41;;;;;;;2.00;1.40;;;12.20;99.90;;;;;;5086703;28;20223;-54
2022/04/23 07:42:27;;;;;;;1.83;1.43;;;12.40;99.90;;;;;;5085140;28;20297;-57
2022/04/23 07:45:12;;;;;;;2.47;1.73;;;12.50;99.90;;;;;;5085175;28;20185;-48
2022/04/23 07:47:56;;;;;;;3.47;2.27;;;12.40;99.90;;;;;;5082655;28;20200;-59
2022/04/23 07:50:42;;;;;;;4.50;2.13;;;12.60;99.90;;;;;;5090658;28;20184;-64
2022/04/23 07:53:28;;;;;;;1.80;1.40;;;12.70;99.90;;;;;;5105611;28;20274;-55
2022/04/23 07:56:13;;;;;;;1.83;1.70;;;12.60;99.90;;;;;;5082516;28;20228;-46
2022/04/23 07:58:57;;;;;;;1.50;1.37;;;12.60;99.90;;;;;;5084283;28;20565;-49
2022/04/23 08:01:43;;;;;;;1.63;1.53;;;12.80;99.90;;;;;;5084478;28;20256;-64
2022/04/23 08:04:27;;;;;;;2.33;1.80;;;13.00;99.90;;;;;;5083960;28;20204;-55
2022/04/23 08:07:15;;;;;;;2.00;1.73;;;13.10;99.90;;;;;;5084027;28;20218;-43
2022/04/23 08:09:59;;;;;;;1.90;1.67;;;13.00;99.90;;;;;;5083363;28;20209;-52
2022/04/23 08:12:43;;;;;;;5.00;2.90;;;13.10;99.90;;;;;;5085730;28;20228;-55
2022/04/23 08:15:28;;;;;;;2.27;1.70;;;13.50;99.90;;;;;;5086018;28;20189;-54
2022/04/23 08:18:13;;;;;;;3.90;1.80;;;13.60;99.90;;;;;;5084075;28;20208;-53
2022/04/23 08:20:58;;;;;;;2.70;1.63;;;13.70;99.90;;;;;;5085152;28;20222;-54
2022/04/23 08:23:42;;;;;;;2.10;1.90;;;13.60;99.90;;;;;;5084971;28;20189;-60
2022/04/23 08:26:27;;;;;;;1.90;1.80;;;13.30;99.90;;;;;;5084406;28;20188;-59
2022/04/23 08:32:14;;;;;;;2.27;1.90;;;13.60;99.90;;;;;;5085406;28;20204;-48
2022/04/23 08:34:59;;;;;;;1.80;1.70;;;13.80;99.90;;;;;;5083541;28;20278;-63
2022/04/23 08:37:43;;;;;;;1.53;1.43;;;13.70;99.90;;;;;;5083856;28;20220;-52
2022/04/23 08:40:30;;;;;;;1.97;1.80;;;13.60;99.90;;;;;;5083501;28;20273;-45
2022/04/23 08:43:14;;;;;;;3.00;2.30;;;13.70;99.90;;;;;;5084107;28;20193;-46
2022/04/23 08:46:02;;;;;;;5.20;3.30;;;13.90;99.90;;;;;;5084105;28;20197;-57
2022/04/23 08:48:50;;;;;;;2.23;1.97;;;13.90;99.90;;;;;;5083526;28;20184;-47
2022/04/23 08:51:35;;;;;;;3.63;1.90;;;14.10;99.90;;;;;;5084410;28;20208;-48
2022/04/23 08:54:23;;;;;;;1.97;1.83;;;14.30;99.90;;;;;;5069497;28;20261;-52
2022/04/23 08:57:08;;;;;;;3.03;2.10;;;14.10;99.60;;;;;;5083383;28;20196;-55
2022/04/23 08:59:56;;;;;;;2.07;1.83;;;14.00;99.80;;;;;;5084458;28;20192;-49
2022/04/23 09:02:42;;;;;;;2.57;1.80;;;13.90;99.90;;;;;;5084154;28;20277;-51
2022/04/23 09:05:28;;;;;;;1.93;1.80;;;14.20;99.90;;;;;;5082726;28;20274;-52
2022/04/23 09:08:13;;;;;;;2.60;2.00;;;14.20;99.70;;;;;;5084297;28;20347;-52
2022/04/23 09:10:57;;;;;;;3.17;2.17;;;14.00;99.90;;;;;;5083531;28;20275;-49
2022/04/23 09:13:42;;;;;;;4.50;2.67;;;13.80;99.90;;;;;;5083431;28;20200;-54
2022/04/23 09:25:39;;;;;;;3.57;2.70;;;13.60;99.90;;;;;;5085079;28;20185;-49
2022/04/23 09:28:29;;;;;;;8.00;4.93;;;13.60;99.90;;;;;;5082910;28;20200;-60
2022/04/23 09:31:15;;;;;;;8.47;5.00;;;13.50;99.90;;;;;;5082555;28;20244;-48
2022/04/23 09:34:00;;;;;;;9.13;5.10;;;13.70;99.90;;;;;;5083048;28;20193;-62
2022/04/23 09:37:00;;;;;;;38.13;14.57;;;13.80;99.90;;;;;;5082508;28;20232;-61
2022/04/23 09:39:45;;;;;;;13.50;6.67;;;13.50;99.90;;;;;;5083355;28;20281;-50
2022/04/23 09:42:29;;;;;;;23.43;11.97;;;13.30;99.90;;;;;;5083175;28;20228;-62
2022/04/23 09:45:18;;;;;;;13.97;7.67;;;13.20;99.90;;;;;;5083311;28;20193;-53
2022/04/23 09:48:05;;;;;;;10.50;5.13;;;13.20;99.90;;;;;;5082947;28;20196;-55
2022/04/23 09:50:51;;;;;;;8.10;4.60;;;13.30;99.90;;;;;;5082635;28;20188;-52
2022/04/23 09:53:36;;;;;;;8.40;5.57;;;13.40;99.90;;;;;;5082926;28;20201;-53
2022/04/23 09:56:22;;;;;;;9.83;4.43;;;13.20;99.90;;;;;;5083539;28;20192;-62
2022/04/23 09:59:11;;;;;;;7.43;4.63;;;13.20;99.90;;;;;;5083444;28;20189;-52
2022/04/23 10:01:56;;;;;;;6.83;4.43;;;13.40;99.90;;;;;;5082216;28;20220;-50
2022/04/23 10:04:41;;;;;;;7.73;4.70;;;13.60;99.90;;;;;;5083282;28;20285;-48
2022/04/23 10:07:28;;;;;;;9.30;5.07;;;13.80;99.90;;;;;;5083216;28;20184;-54
2022/04/23 10:10:15;;;;;;;8.43;4.70;;;14.00;99.90;;;;;;5082367;28;20267;-47
2022/04/23 10:13:02;;;;;;;8.77;5.13;;;14.30;99.90;;;;;;5082415;28;20255;-48
2022/04/23 10:15:48;;;;;;;9.20;6.07;;;14.70;99.90;;;;;;5083142;28;20263;-51
2022/04/23 10:18:38;;;;;;;6.93;4.90;;;15.10;99.80;;;;;;5082583;28;20252;-60
2022/04/23 10:21:42;;;;;;;7.03;5.33;;;15.50;99.20;;;;;;5082191;28;20247;-45
2022/04/23 10:25:09;;;;;;;8.77;5.93;;;15.60;98.50;;;;;;5083859;28;20208;-53
2022/04/23 10:27:56;;;;;;;6.13;4.60;;;15.70;98.70;;;;;;5084361;28;20254;-43
2022/04/23 10:30:40;;;;;;;7.10;5.37;;;16.10;98.30;;;;;;5086575;28;20205;-45
2022/04/23 10:33:29;;;;;;;9.83;4.80;;;16.60;97.70;;;;;;5086477;28;20200;-62
2022/04/23 10:36:14;;;;;;;4.40;3.60;;;16.80;96.30;;;;;;5085982;28;20275;-47
2022/04/23 10:39:24;;;;;;;4.20;3.33;;;16.90;95.80;;;;;;5086670;28;20196;-58
2022/04/23 10:42:13;;;;;;;5.80;4.00;;;17.40;95.20;;;;;;5086753;28;20290;-55
2022/04/23 10:45:03;;;;;;;9.33;5.93;;;17.30;95.70;;;;;;5086486;28;20251;-47
2022/04/23 10:47:47;;;;;;;7.07;4.80;;;17.20;95.30;;;;;;5086394;28;20189;-55
2022/04/23 10:50:33;;;;;;;11.53;6.67;;;17.20;95.50;;;;;;5086076;28;20362;-59
2022/04/23 10:53:37;;;;;;;9.40;5.70;;;17.60;95.40;;;;;;5086026;28;20200;-55
2022/04/23 10:56:21;;;;;;;8.13;5.63;;;17.70;94.90;;;;;;5086854;28;20878;-60
2022/04/23 10:59:44;;;;;;;8.97;5.63;;;17.30;95.50;;;;;;5085554;28;20236;-50
2022/04/23 11:02:31;;;;;;;8.10;6.17;;;17.10;95.70;;;;;;5085123;28;20274;-47
2022/04/23 11:14:48;;;;;;;12.10;8.07;;;15.90;97.50;;;;;;5087664;28;20207;-51
2022/04/23 11:17:46;;;;;;;10.47;6.33;;;16.40;96.60;;;;;;5085626;28;20232;-55
2022/04/23 11:20:37;;;;;;;7.97;5.27;;;16.90;96.30;;;;;;5084534;28;20232;-50
2022/04/23 11:23:22;;;;;;;6.83;4.63;;;17.40;95.50;;;;;;5085205;28;20250;-53
2022/04/23 11:26:07;;;;;;;5.80;4.07;;;17.60;94.90;;;;;;5085327;28;20291;-53
2022/04/23 11:28:59;;;;;;;4.83;3.77;;;17.50;95.10;;;;;;5085791;28;20263;-45
2022/04/23 11:31:54;;;;;;;6.30;4.53;;;17.70;94.40;;;;;;5085196;28;20201;-48
2022/04/23 11:34:39;;;;;;;11.43;6.50;;;17.90;94.30;;;;;;5085316;28;20343;-59
2022/04/23 11:37:39;;;;;;;3.57;3.27;;;18.00;94.10;;;;;;5085477;28;20208;-58
2022/04/23 11:40:28;;;;;;;16.07;8.77;;;18.00;93.60;;;;;;5083608;28;20202;-50
2022/04/23 11:43:31;;;;;;;11.90;6.97;;;17.90;93.40;;;;;;5084282;28;20201;-53
2022/04/23 11:46:15;;;;;;;15.40;8.20;;;17.90;93.50;;;;;;5085278;28;20281;-51
2022/04/23 11:48:59;;;;;;;6.17;4.37;;;17.50;93.70;;;;;;5085297;28;20211;-50
2022/04/23 11:51:47;;;;;;;6.27;3.67;;;17.20;94.00;;;;;;5084309;28;20205;-50
2022/04/23 11:54:39;;;;;;;9.93;7.07;;;17.00;94.80;;;;;;5084887;28;20197;-53
2022/04/23 11:57:23;;;;;;;12.67;8.13;;;17.30;94.30;;;;;;5084717;28;20236;-46
2022/04/23 12:00:09;;;;;;;11.83;7.13;;;17.70;94.10;;;;;;5084790;28;20192;-49
2022/04/23 12:02:54;;;;;;;3.73;3.33;;;18.00;93.80;;;;;;5084889;28;20200;-44
2022/04/23 12:05:39;;;;;;;3.70;3.27;;;18.30;92.90;;;;;;5084899;28;20297;-51
2022/04/23 12:08:23;;;;;;;4.67;3.43;;;19.00;92.10;;;;;;5085505;28;20201;-63
2022/04/23 12:11:27;;;;;;;5.53;4.33;;;19.00;92.00;;;;;;5085071;28;20263;-45
2022/04/23 12:14:11;;;;;;;7.27;5.30;;;18.90;92.40;;;;;;5086159;28;20252;-54
2022/04/23 12:17:06;;;;;;;6.07;4.50;;;18.90;92.60;;;;;;5085832;28;20189;-52
2022/04/23 12:19:56;;;;;;;6.57;4.77;;;18.40;92.50;;;;;;5085208;28;20188;-46
2022/04/23 12:22:53;;;;;;;5.67;4.10;;;18.00;93.00;;;;;;5084956;28;20197;-56
2022/04/23 12:25:38;;;;;;;4.83;4.33;;;18.10;92.70;;;;;;5085039;28;20206;-48
2022/04/23 12:40:58;;;;;;;6.57;5.10;;;20.30;90.40;;;;;;5086143;28;20236;-49
2022/04/23 12:43:42;;;;;;;5.65;4.20;;;21.30;88.20;;;;;;5084231;28;20225;-56
2022/04/23 12:46:27;;;;;;;4.57;4.05;;;20.90;88.30;;;;;;5084934;28;20246;-54
2022/04/23 12:49:12;;;;;;;4.40;4.00;;;20.10;89.60;;;;;;5085286;28;20196;-57
2022/04/23 12:51:56;;;;;;;4.28;3.88;;;19.60;90.10;;;;;;5084153;28;20192;-56
2022/04/23 12:54:40;;;;;;;4.57;4.00;;;19.90;89.80;;;;;;5086035;28;20258;-62
2022/04/23 12:57:24;;;;;;;4.90;4.07;;;19.20;90.20;;;;;;5086251;28;20200;-58
2022/04/23 13:00:11;;;;;;;3.83;3.37;;;18.70;90.70;;;;;;5084978;28;20261;-63
2022/04/23 13:03:05;;;;;;;4.27;3.47;;;18.30;91.20;;;;;;5084505;28;20617;-61
2022/04/23 13:05:49;;;;;;;3.77;3.30;;;18.40;91.20;;;;;;5084650;28;20274;-59
2022/04/23 13:11:37;;;;;;;4.87;3.00;;;18.00;92.00;;;;;;5084636;28;20196;-51
2022/04/23 13:14:22;;;;;;;4.97;3.63;;;18.10;91.90;;;;;;5083458;28;20205;-54
2022/04/23 13:17:06;;;;;;;3.67;3.37;;;18.50;91.20;;;;;;5083587;28;20228;-56
2022/04/23 13:19:52;;;;;;;5.53;3.70;;;18.70;91.40;;;;;;5083444;28;20250;-46
2022/04/23 13:22:37;;;;;;;5.10;3.37;;;18.40;91.30;;;;;;5083532;28;20306;-55
2022/04/23 13:25:22;;;;;;;3.40;3.10;;;18.00;91.70;;;;;;5082977;28;20270;-51
2022/04/23 13:28:07;;;;;;;8.73;3.37;;;18.20;91.80;;;;;;5084064;28;20290;-52
2022/04/23 13:30:52;;;;;;;3.43;3.10;;;18.20;91.70;;;;;;5083051;28;20285;-49
2022/04/23 13:33:37;;;;;;;4.87;3.43;;;18.30;91.70;;;;;;5083170;28;20188;-51
2022/04/23 13:36:21;;;;;;;3.23;2.97;;;18.30;91.30;;;;;;5083016;28;20247;-51
2022/04/23 13:39:06;;;;;;;3.50;3.20;;;17.90;91.80;;;;;;5084884;28;20565;-57
2022/04/23 13:41:50;;;;;;;4.03;3.33;;;18.10;91.70;;;;;;5083614;28;20228;-51
2022/04/23 13:44:36;;;;;;;3.67;3.37;;;17.90;92.00;;;;;;5083192;28;20301;-46
2022/04/23 13:47:21;;;;;;;3.57;3.27;;;18.70;91.30;;;;;;5084123;28;20205;-49
2022/04/23 13:50:07;;;;;;;4.10;3.20;;;19.10;91.00;;;;;;5082220;28;20201;-53
2022/04/23 13:52:51;;;;;;;3.67;3.10;;;19.30;90.50;;;;;;5083144;28;20236;-52
2022/04/23 13:55:36;;;;;;;4.47;3.60;;;19.40;90.40;;;;;;5083673;28;20298;-47
2022/04/23 13:58:21;;;;;;;3.27;2.97;;;19.20;90.40;;;;;;5083094;28;20197;-44
2022/04/23 14:01:05;;;;;;;4.17;3.47;;;19.30;90.40;;;;;;5082550;28;20220;-56
2022/04/23 14:10:04;;;;;;;3.53;3.08;;;20.00;88.90;;;;;;5088191;28;20250;-47
2022/04/23 14:12:49;;;;;;;4.03;3.40;;;20.00;88.60;;;;;;5086330;28;20197;-52
2022/04/23 14:15:34;;;;;;;3.33;2.97;;;20.10;88.00;;;;;;5086717;28;20193;-48
2022/04/23 14:18:18;;;;;;;2.97;2.77;;;20.20;88.40;;;;;;5087249;28;20247;-54
2022/04/23 14:21:03;;;;;;;3.27;2.97;;;19.50;89.20;;;;;;5086839;28;20216;-54
2022/04/23 14:23:47;;;;;;;3.43;3.10;;;19.20;89.60;;;;;;5087009;28;20186;-49
2022/04/23 14:26:32;;;;;;;3.80;3.40;;;18.70;90.30;;;;;;5086829;28;20192;-49
2022/04/23 14:29:16;;;;;;;4.23;3.40;;;18.20;91.30;;;;;;5085703;28;20215;-59
2022/04/23 14:32:02;;;;;;;3.80;3.00;;;18.00;91.00;;;;;;5087011;28;20228;-60
2022/04/23 14:34:48;;;;;;;5.07;2.77;;;17.90;91.20;;;;;;5086753;28;20263;-47
2022/04/23 14:37:33;;;;;;;3.00;2.80;;;17.80;91.60;;;;;;5086495;28;20208;-53
2022/04/23 14:40:17;;;;;;;2.40;2.30;;;17.60;91.70;;;;;;5085696;28;20188;-58
2022/04/23 14:43:02;;;;;;;2.57;2.37;;;17.60;91.50;;;;;;5085981;28;20204;-46
2022/04/23 14:45:46;;;;;;;4.23;2.80;;;17.70;91.40;;;;;;5086539;28;20192;-50
2022/04/23 14:48:31;;;;;;;3.77;2.50;;;17.70;91.50;;;;;;5086360;28;20250;-43
2022/04/23 14:54:19;;;;;;;2.60;2.40;;;17.80;91.50;;;;;;5087986;28;20232;-51
2022/04/23 14:57:04;;;;;;;2.57;2.37;;;17.80;91.60;;;;;;5086468;28;20251;-49
2022/04/23 14:59:48;;;;;;;3.40;2.80;;;17.60;91.50;;;;;;5085815;28;20205;-49
2022/04/23 15:02:32;;;;;;;2.60;2.40;;;17.40;91.90;;;;;;5086408;28;20290;-49
2022/04/23 15:05:16;;;;;;;2.27;2.07;;;17.40;91.80;;;;;;5085960;28;20286;-53
2022/04/23 15:08:02;;;;;;;2.60;2.40;;;17.50;91.70;;;;;;5085261;28;20285;-48
2022/04/23 15:10:46;;;;;;;2.53;2.33;;;17.20;91.80;;;;;;5085047;28;20200;-51
2022/04/23 15:13:31;;;;;;;1.80;1.70;;;17.00;92.00;;;;;;5085341;28;20236;-52
2022/04/23 15:16:15;;;;;;;2.30;2.10;;;17.10;92.20;;;;;;5085853;28;20208;-48
2022/04/23 15:19:00;;;;;;;2.30;1.97;;;17.10;92.30;;;;;;5085037;28;20292;-48